Terminal Aerodrome Forecast
Issued by NWS

Home | Current Version | Previous Version | Text Only | Print | Product List | Glossary On
Versions: 1 2 3 4 5 6 7 8 9 10 11 12 13 14 15 16 17 18 19 20 21 22 23 24 25 26 27 28 29 30 31 32 33
000
FTUS44 KFWD 191140
TAFFTW
TAF
KFTW 191140Z 1912/2012 17018KT P6SM BKN015 OVC020
     FM191600 18015G25KT P6SM VCSH BKN025
     FM192100 18016G26KT P6SM VCTS SCT030 BKN045CB
     FM200100 17018KT P6SM OVC018
     FM200700 17015G25KT 6SM -SHRA OVC015
      TEMPO 2008/2012 4SM TSRA OVC015CB=

USA.gov is the U.S. government's official web portal to all federal, state and local government web resources and services.